createdAt,value
2023-04-07T00:00:13.844Z,101308.53
2023-04-07T00:02:44.573Z,101308.69
2023-04-07T00:05:11.567Z,101310.34
2023-04-07T00:07:48.790Z,101307.69
2023-04-07T00:10:20.047Z,101313.66
2023-04-07T00:12:47.143Z,101315.31
2023-04-07T00:15:15.954Z,101310.81
2023-04-07T00:17:42.857Z,101314.47
2023-04-07T00:20:10.237Z,101319.63
2023-04-07T00:22:36.972Z,101316.13
2023-04-07T00:25:04.113Z,101324.09
2023-04-07T00:27:31.255Z,101321.28
2023-04-07T00:29:58.020Z,101312.47
2023-04-07T00:32:26.805Z,101319.47
2023-04-07T00:34:53.653Z,101326.44
2023-04-07T00:37:21.024Z,101330.06
2023-04-07T00:39:47.830Z,101327.41
2023-04-07T00:42:14.678Z,101327.41
2023-04-07T00:44:41.548Z,101321.94
2023-04-07T00:47:08.815Z,101321.94
2023-04-07T00:49:38.512Z,101328.09
2023-04-07T00:52:07.385Z,101325.44
2023-04-07T00:54:44.801Z,101328.94
2023-04-07T00:57:11.565Z,101326.06
2023-04-07T00:59:39.088Z,101319.13
2023-04-07T01:02:11.445Z,101315.66
2023-04-07T01:04:47.386Z,101314.81
2023-04-07T01:07:18.856Z,101310.50
2023-04-07T01:09:51.822Z,101317.63
2023-04-07T01:12:26.032Z,101315.13
2023-04-07T01:14:59.072Z,101319.78
2023-04-07T01:17:28.470Z,101319.13
2023-04-07T01:20:02.094Z,101328.25
2023-04-07T01:22:34.526Z,101324.09
2023-04-07T01:25:18.523Z,101323.28
2023-04-07T01:27:53.138Z,101324.09
2023-04-07T01:30:24.536Z,101320.81
2023-04-07T01:32:53.598Z,101314.81
2023-04-07T01:35:22.520Z,101315.97
2023-04-07T01:37:53.616Z,101317.78
2023-04-07T01:40:22.353Z,101330.91
2023-04-07T01:42:53.089Z,101334.41
2023-04-07T01:45:24.184Z,101332.56
2023-04-07T01:47:54.890Z,101328.94
2023-04-07T01:50:22.719Z,101333.41
2023-04-07T01:52:49.707Z,101329.75
2023-04-07T01:55:17.266Z,101332.41
2023-04-07T01:57:44.302Z,101338.72
2023-04-07T02:00:18.465Z,101335.38
2023-04-07T02:02:53.250Z,101329.09
2023-04-07T02:05:21.952Z,101331.75
2023-04-07T02:07:53.999Z,101328.41
2023-04-07T02:10:23.826Z,101330.28
2023-04-07T02:12:52.574Z,101333.72
2023-04-07T02:15:20.099Z,101334.56
2023-04-07T02:17:54.023Z,101342.53
2023-04-07T02:20:22.921Z,101343.34
2023-04-07T02:22:49.967Z,101341.03
2023-04-07T02:25:25.860Z,101345.38
2023-04-07T02:27:53.878Z,101350.00
2023-04-07T02:30:21.297Z,101345.69
2023-04-07T02:32:49.447Z,101344.84
2023-04-07T02:35:26.001Z,101344.69
2023-04-07T02:37:53.201Z,101343.03
2023-04-07T02:40:20.442Z,101339.88
2023-04-07T02:42:52.572Z,101348.00
2023-04-07T02:45:24.288Z,101340.03
2023-04-07T02:47:54.607Z,101346.19
2023-04-07T02:50:23.760Z,101345.50
2023-04-07T02:52:53.277Z,101351.66
2023-04-07T02:55:20.261Z,101349.84
2023-04-07T02:57:47.525Z,101350.81
2023-04-07T03:00:18.465Z,101348.84
2023-04-07T03:02:45.505Z,101357.63
2023-04-07T03:05:13.824Z,101363.78
2023-04-07T03:07:40.885Z,101366.25
2023-04-07T03:10:08.273Z,101359.94
2023-04-07T03:12:35.224Z,101369.72
2023-04-07T03:15:02.677Z,101371.38
2023-04-07T03:17:29.569Z,101363.59
2023-04-07T03:19:57.074Z,101366.25
2023-04-07T03:22:25.800Z,101366.25
2023-04-07T03:24:52.676Z,101360.94
2023-04-07T03:27:20.873Z,101361.91
2023-04-07T03:29:47.890Z,101368.25
2023-04-07T03:32:16.581Z,101355.13
2023-04-07T03:34:45.631Z,101362.94
2023-04-07T03:37:12.381Z,101362.94
2023-04-07T03:39:41.197Z,101358.63
2023-04-07T03:42:08.223Z,101363.94
2023-04-07T03:44:35.083Z,101354.16
2023-04-07T03:47:02.302Z,101359.47
2023-04-07T03:49:29.489Z,101360.44
2023-04-07T03:51:56.219Z,101357.44
2023-04-07T03:54:23.160Z,101361.75
2023-04-07T03:56:51.911Z,101370.41
2023-04-07T03:59:19.880Z,101369.41
2023-04-07T04:01:46.705Z,101365.75
2023-04-07T04:04:13.848Z,101366.59
2023-04-07T04:06:41.089Z,101373.72
2023-04-07T04:09:09.172Z,101368.41
2023-04-07T04:11:42.105Z,101380.69
2023-04-07T04:14:12.415Z,101376.38
2023-04-07T04:16:39.198Z,101373.72
2023-04-07T04:19:07.691Z,101385.19
2023-04-07T04:21:34.797Z,101377.38
2023-04-07T04:24:01.659Z,101376.03
2023-04-07T04:26:29.844Z,101382.16
2023-04-07T04:28:56.796Z,101380.50
2023-04-07T04:31:25.612Z,101379.69
2023-04-07T04:33:52.983Z,101383.16
2023-04-07T04:36:20.461Z,101387.31
2023-04-07T04:38:50.255Z,101385.50
2023-04-07T04:41:17.163Z,101385.50
2023-04-07T04:43:44.264Z,101392.47
2023-04-07T04:46:11.299Z,101386.31
2023-04-07T04:48:39.485Z,101389.81
2023-04-07T04:51:07.873Z,101390.81
2023-04-07T04:53:35.067Z,101402.25
2023-04-07T04:56:02.043Z,101403.09
2023-04-07T04:58:29.177Z,101402.09
2023-04-07T05:00:59.949Z,101405.59
2023-04-07T05:03:28.280Z,101405.38
2023-04-07T05:05:56.542Z,101410.88
2023-04-07T05:08:23.530Z,101411.03
2023-04-07T05:10:50.426Z,101412.03
2023-04-07T05:13:17.252Z,101415.69
2023-04-07T05:15:45.322Z,101421.00
2023-04-07T05:18:16.273Z,101414.84
2023-04-07T05:20:48.847Z,101416.50
2023-04-07T05:23:17.019Z,101421.81
2023-04-07T05:25:44.226Z,101421.00
2023-04-07T05:28:11.126Z,101430.63
2023-04-07T05:30:40.366Z,101425.31
2023-04-07T05:33:07.177Z,101425.16
2023-04-07T05:35:40.093Z,101426.81
2023-04-07T05:38:07.147Z,101426.81
2023-04-07T05:40:37.001Z,101423.97
2023-04-07T05:43:04.346Z,101430.13
2023-04-07T05:45:31.382Z,101432.97
2023-04-07T05:47:58.289Z,101433.94
2023-04-07T05:50:25.810Z,101427.97
2023-04-07T05:52:52.570Z,101427.97
2023-04-07T05:55:19.336Z,101425.31
2023-04-07T05:57:47.679Z,101430.63
2023-04-07T06:00:15.558Z,101434.25
2023-04-07T06:02:42.471Z,101436.75
2023-04-07T06:05:09.591Z,101438.56
2023-04-07T06:07:36.548Z,101444.88
2023-04-07T06:10:03.654Z,101450.88
2023-04-07T06:12:30.365Z,101449.19
2023-04-07T06:14:58.690Z,101448.06
2023-04-07T06:17:25.693Z,101450.50
2023-04-07T06:19:52.502Z,101458.47
2023-04-07T06:22:21.913Z,101452.38
2023-04-07T06:24:48.802Z,101452.38
2023-04-07T06:27:16.472Z,101448.06
2023-04-07T06:29:43.258Z,101450.03
2023-04-07T06:32:11.392Z,101455.19
2023-04-07T06:34:38.266Z,101459.16
2023-04-07T06:37:05.751Z,101464.47
2023-04-07T06:39:32.690Z,101459.84
2023-04-07T06:41:59.551Z,101462.34
2023-04-07T06:44:26.269Z,101472.75
2023-04-07T06:46:55.503Z,101475.41
2023-04-07T06:49:23.634Z,101479.94
2023-04-07T06:51:50.645Z,101478.06
2023-04-07T06:54:17.536Z,101484.06
2023-04-07T06:56:47.245Z,101480.56
2023-04-07T06:59:15.962Z,101481.41
2023-04-07T07:01:43.836Z,101488.38
2023-04-07T07:04:10.981Z,101486.41
2023-04-07T07:06:39.251Z,101488.91
2023-04-07T07:09:06.126Z,101491.22
2023-04-07T07:11:34.818Z,101497.34
2023-04-07T07:14:01.533Z,101492.03
2023-04-07T07:16:28.989Z,101502.50
2023-04-07T07:18:56.053Z,101491.53
2023-04-07T07:21:23.249Z,101501.84
2023-04-07T07:23:51.640Z,101502.34
2023-04-07T07:26:18.778Z,101509.00
2023-04-07T07:28:45.618Z,101505.34
2023-04-07T07:31:16.070Z,101508.66
2023-04-07T07:33:55.753Z,101511.31
2023-04-07T07:36:22.608Z,101511.16
2023-04-07T07:38:51.876Z,101519.63
2023-04-07T07:41:18.773Z,101522.94
2023-04-07T07:43:46.413Z,101519.97
2023-04-07T07:46:13.467Z,101524.13
2023-04-07T07:48:40.473Z,101521.16
2023-04-07T07:51:07.343Z,101529.97
2023-04-07T07:53:34.543Z,101533.28
2023-04-07T07:56:03.119Z,101525.81
2023-04-07T07:58:29.909Z,101529.13
2023-04-07T08:00:57.085Z,101531.63
2023-04-07T08:03:25.097Z,101530.81
2023-04-07T08:05:52.980Z,101536.44
2023-04-07T08:08:19.912Z,101534.31
2023-04-07T08:10:54.304Z,101544.78
2023-04-07T08:13:25.284Z,101543.94
2023-04-07T08:15:55.586Z,101541.78
2023-04-07T08:18:23.359Z,101545.94
2023-04-07T08:20:50.308Z,101548.25
2023-04-07T08:23:17.449Z,101553.25
2023-04-07T08:25:44.606Z,101552.25
2023-04-07T08:28:11.650Z,101556.22
2023-04-07T08:30:41.872Z,101553.25
2023-04-07T08:33:09.107Z,101563.72
2023-04-07T08:35:36.700Z,101556.38
2023-04-07T08:38:08.114Z,101565.88
2023-04-07T08:40:38.053Z,101565.88
2023-04-07T08:43:13.115Z,101570.88
2023-04-07T08:45:45.065Z,101570.88
2023-04-07T08:48:17.782Z,101579.63
2023-04-07T08:50:51.791Z,101573.16
2023-04-07T08:53:21.881Z,101581.16
2023-04-07T08:55:49.126Z,101584.16
2023-04-07T08:58:17.420Z,101585.78
2023-04-07T09:00:46.608Z,101585.63
2023-04-07T09:03:14.190Z,101585.63
2023-04-07T09:05:42.545Z,101587.63
2023-04-07T09:08:09.894Z,101584.16
2023-04-07T09:10:37.785Z,101590.47
2023-04-07T09:13:06.415Z,101586.47
2023-04-07T09:15:33.987Z,101594.94
2023-04-07T09:18:06.984Z,101591.63
2023-04-07T09:20:56.152Z,101596.44
2023-04-07T09:23:31.995Z,101603.09
2023-04-07T09:26:24.985Z,101597.78
2023-04-07T09:28:55.734Z,101600.44
2023-04-07T09:31:45.804Z,101598.25
2023-04-07T09:34:28.120Z,101601.44
2023-04-07T09:36:55.597Z,101593.09
2023-04-07T09:39:52.034Z,101604.25
2023-04-07T09:42:24.612Z,101596.09
2023-04-07T09:44:52.948Z,101597.75
2023-04-07T09:47:27.144Z,101600.25
2023-04-07T09:49:56.188Z,101599.41
2023-04-07T09:52:49.240Z,101602.75
2023-04-07T09:55:17.616Z,101599.75
2023-04-07T09:57:46.660Z,101606.75
2023-04-07T10:00:14.867Z,101604.56
2023-04-07T10:02:45.745Z,101610.56
2023-04-07T10:05:14.004Z,101607.91
2023-04-07T10:07:48.032Z,101606.06
2023-04-07T10:10:17.501Z,101605.41
2023-04-07T10:12:48.202Z,101607.91
2023-04-07T10:15:20.478Z,101616.72
2023-04-07T10:17:54.957Z,101615.34
2023-04-07T10:20:28.398Z,101615.88
2023-04-07T10:23:08.761Z,101617.34
2023-04-07T10:25:45.920Z,101620.84
2023-04-07T10:28:27.007Z,101623.66
2023-04-07T10:30:55.790Z,101628.34
2023-04-07T10:33:46.070Z,101623.34
2023-04-07T10:36:15.239Z,101622.66
2023-04-07T10:39:22.502Z,101631.69
2023-04-07T10:41:51.941Z,101632.66
2023-04-07T10:51:52.022Z,101637.00
2023-04-07T10:54:29.428Z,101643.31
2023-04-07T10:57:17.176Z,101639.66
2023-04-07T11:00:26.423Z,101647.44
2023-04-07T11:02:53.527Z,101641.97
2023-04-07T11:05:26.533Z,101647.13
2023-04-07T11:08:03.169Z,101650.47
2023-04-07T11:10:30.091Z,101651.63
2023-04-07T11:13:35.999Z,101654.78
2023-04-07T11:16:03.185Z,101661.94
2023-04-07T11:18:41.263Z,101657.59
2023-04-07T11:21:14.349Z,101664.59
2023-04-07T11:23:51.746Z,101657.25
2023-04-07T11:26:19.901Z,101663.59
2023-04-07T11:28:56.261Z,101669.56
2023-04-07T11:31:27.132Z,101674.25
2023-04-07T11:33:55.330Z,101672.91
2023-04-07T11:36:30.217Z,101678.88
2023-04-07T11:39:15.242Z,101679.38
2023-04-07T11:42:02.196Z,101681.72
2023-04-07T11:44:29.305Z,101669.56
2023-04-07T11:49:45.852Z,101678.53
2023-04-07T11:52:12.628Z,101688.34
2023-04-07T11:54:48.180Z,101686.38
2023-04-07T11:57:23.594Z,101683.19
2023-04-07T11:59:53.077Z,101685.53
2023-04-07T12:02:34.629Z,101683.34
2023-04-07T12:05:03.951Z,101692.84
2023-04-07T12:07:31.293Z,101702.81
2023-04-07T12:10:19.364Z,101702.13
2023-04-07T12:12:47.154Z,101703.31
2023-04-07T12:15:14.107Z,101707.81
2023-04-07T12:17:47.187Z,101708.66
2023-04-07T12:20:14.848Z,101711.47
2023-04-07T12:22:44.207Z,101717.78
2023-04-07T12:25:12.509Z,101715.28
2023-04-07T12:27:43.618Z,101713.47
2023-04-07T12:30:11.528Z,101725.28
2023-04-07T12:32:38.650Z,101722.94
2023-04-07T12:35:06.534Z,101719.13
2023-04-07T12:37:34.425Z,101726.91
2023-04-07T12:40:01.654Z,101720.59
2023-04-07T12:42:29.885Z,101728.44
2023-04-07T12:44:57.236Z,101730.56
2023-04-07T12:47:24.225Z,101735.56
2023-04-07T12:49:52.443Z,101734.41
2023-04-07T12:52:19.178Z,101729.75
2023-04-07T12:54:47.290Z,101735.56
2023-04-07T12:57:14.056Z,101731.41
2023-04-07T12:59:42.175Z,101737.09
2023-04-07T13:02:10.081Z,101734.75
2023-04-07T13:04:40.587Z,101734.06
2023-04-07T13:07:08.460Z,101738.41
2023-04-07T13:09:35.465Z,101740.75
2023-04-07T13:12:03.244Z,101733.41
2023-04-07T13:14:30.437Z,101733.75
2023-04-07T13:16:58.616Z,101744.03
2023-04-07T13:19:30.422Z,101739.22
2023-04-07T13:21:57.321Z,101747.69
2023-04-07T13:24:25.225Z,101743.72
2023-04-07T13:26:52.695Z,101739.72
2023-04-07T13:29:30.625Z,101741.38
2023-04-07T13:32:06.993Z,101750.22
2023-04-07T13:34:34.107Z,101748.03
2023-04-07T13:37:03.524Z,101755.53
2023-04-07T13:39:31.287Z,101755.84
2023-04-07T13:41:58.520Z,101748.19
2023-04-07T13:44:27.396Z,101753.03
2023-04-07T13:47:01.905Z,101749.53
2023-04-07T13:49:30.442Z,101758.03
2023-04-07T13:51:59.541Z,101750.88
2023-04-07T13:54:36.169Z,101755.53
2023-04-07T13:57:05.104Z,101748.72
2023-04-07T13:59:33.593Z,101753.16
2023-04-07T14:02:02.831Z,101758.69
2023-04-07T14:04:35.237Z,101750.34
2023-04-07T14:07:02.265Z,101751.72
2023-04-07T14:09:29.108Z,101754.69
2023-04-07T14:11:56.091Z,101747.38
2023-04-07T14:14:22.826Z,101749.38
2023-04-07T14:16:52.586Z,101751.56
2023-04-07T14:19:22.441Z,101744.88
2023-04-07T14:21:51.009Z,101744.19
2023-04-07T14:24:21.815Z,101753.69
2023-04-07T14:26:49.194Z,101746.53
2023-04-07T14:29:17.313Z,101754.88
2023-04-07T14:31:45.304Z,101760.50
2023-04-07T14:34:12.559Z,101753.88
2023-04-07T14:36:39.344Z,101757.00
2023-04-07T14:39:07.495Z,101753.34
2023-04-07T14:41:35.725Z,101751.81
2023-04-07T14:44:02.907Z,101753.31
2023-04-07T14:46:29.747Z,101755.00
2023-04-07T14:48:58.993Z,101754.00
2023-04-07T14:51:28.208Z,101756.28
2023-04-07T14:53:56.290Z,101754.13
2023-04-07T14:56:25.593Z,101759.94
2023-04-07T14:58:54.137Z,101758.94
2023-04-07T15:01:22.038Z,101763.94
2023-04-07T15:03:49.302Z,101767.91
2023-04-07T15:06:18.980Z,101767.75
2023-04-07T15:08:49.169Z,101772.44
2023-04-07T15:11:26.983Z,101767.31
2023-04-07T15:13:55.452Z,101769.84
2023-04-07T15:16:24.065Z,101772.34
2023-04-07T15:18:56.656Z,101775.00
2023-04-07T15:21:24.809Z,101785.81
2023-04-07T15:23:52.979Z,101775.03
2023-04-07T15:26:20.110Z,101775.03
2023-04-07T15:28:46.948Z,101779.50
2023-04-07T15:31:15.622Z,101775.84
2023-04-07T15:33:46.909Z,101774.03
2023-04-07T15:36:16.145Z,101773.34
2023-04-07T15:38:43.180Z,101784.47
2023-04-07T15:41:15.909Z,101780.00
2023-04-07T15:43:42.843Z,101785.16
2023-04-07T15:46:10.154Z,101776.34
2023-04-07T15:48:38.518Z,101786.16
2023-04-07T15:51:06.290Z,101782.50
2023-04-07T15:53:42.549Z,101788.19
2023-04-07T15:56:11.967Z,101789.34
2023-04-07T15:58:40.474Z,101790.47
2023-04-07T16:01:08.343Z,101790.81
2023-04-07T16:03:35.397Z,101794.63
2023-04-07T16:06:06.238Z,101798.81
2023-04-07T16:08:33.509Z,101795.63
2023-04-07T16:11:02.673Z,101799.97
2023-04-07T16:13:29.621Z,101803.63
2023-04-07T16:15:58.390Z,101801.97
2023-04-07T16:18:25.699Z,101809.13
2023-04-07T16:20:52.817Z,101799.97
2023-04-07T16:23:29.156Z,101809.97
2023-04-07T16:25:58.164Z,101818.13
2023-04-07T16:28:29.253Z,101810.44
2023-04-07T16:30:56.580Z,101820.25
2023-04-07T16:33:25.949Z,101823.59
2023-04-07T16:35:53.441Z,101820.28
2023-04-07T16:38:23.745Z,101824.59
2023-04-07T16:41:03.190Z,101820.94
2023-04-07T16:43:38.960Z,101827.09
2023-04-07T16:46:07.191Z,101825.41
2023-04-07T16:48:37.427Z,101829.91
2023-04-07T16:51:04.606Z,101829.91
2023-04-07T16:53:31.495Z,101834.25
2023-04-07T16:55:59.770Z,101831.94
2023-04-07T16:58:26.621Z,101834.06
2023-04-07T17:00:54.725Z,101833.75
2023-04-07T17:03:23.195Z,101837.38
2023-04-07T17:05:50.068Z,101843.88
2023-04-07T17:08:17.122Z,101847.88
2023-04-07T17:10:43.917Z,101850.84
2023-04-07T17:13:12.194Z,101847.84
2023-04-07T17:15:39.946Z,101853.50
2023-04-07T17:18:07.197Z,101856.16
2023-04-07T17:20:36.302Z,101857.16
2023-04-07T17:23:03.111Z,101861.50
2023-04-07T17:25:29.934Z,101858.81
2023-04-07T17:27:56.966Z,101863.47
2023-04-07T17:30:25.172Z,101872.44
2023-04-07T17:32:53.642Z,101877.75
2023-04-07T17:35:29.360Z,101875.09
2023-04-07T17:38:02.763Z,101880.72
2023-04-07T17:40:29.932Z,101886.06
2023-04-07T17:42:56.842Z,101888.72
2023-04-07T17:45:25.572Z,101896.69
2023-04-07T17:47:52.444Z,101896.53
2023-04-07T17:50:19.842Z,101902.03
2023-04-07T17:52:46.813Z,101905.38
2023-04-07T17:55:13.712Z,101908.84
2023-04-07T17:57:42.002Z,101916.00
2023-04-07T18:00:09.772Z,101921.00
2023-04-07T18:02:40.357Z,101924.66
2023-04-07T18:05:07.772Z,101919.50
2023-04-07T18:07:35.009Z,101921.47
2023-04-07T18:10:04.609Z,101922.31
2023-04-07T18:12:32.007Z,101927.13
2023-04-07T18:14:59.906Z,101922.28
2023-04-07T18:17:27.169Z,101933.09
2023-04-07T18:19:55.513Z,101928.94
2023-04-07T18:22:22.695Z,101932.72
2023-04-07T18:24:53.391Z,101930.41
2023-04-07T18:27:24.031Z,101925.91
2023-04-07T18:29:50.993Z,101936.38
2023-04-07T18:32:18.118Z,101941.53
2023-04-07T18:34:47.096Z,101947.53
2023-04-07T18:37:15.482Z,101944.03
2023-04-07T18:39:42.650Z,101952.88
2023-04-07T18:42:09.407Z,101949.53
2023-04-07T18:44:36.253Z,101955.19
2023-04-07T18:47:03.724Z,101953.81
2023-04-07T18:49:31.096Z,101956.47
2023-04-07T18:51:57.811Z,101961.63
2023-04-07T18:54:28.236Z,101965.13
2023-04-07T18:56:55.150Z,101972.44
2023-04-07T18:59:22.231Z,101975.22
2023-04-07T19:01:49.187Z,101977.25
2023-04-07T19:04:16.632Z,101984.38
2023-04-07T19:06:43.763Z,101990.38
2023-04-07T19:09:10.912Z,101991.38
2023-04-07T19:11:39.338Z,101989.69
2023-04-07T19:14:06.726Z,101990.84
2023-04-07T19:16:34.841Z,101995.66
2023-04-07T19:19:01.741Z,102001.13
2023-04-07T19:21:28.584Z,102009.25
2023-04-07T19:23:56.523Z,102007.72
2023-04-07T19:26:23.533Z,102005.25
2023-04-07T19:28:51.816Z,102009.59
2023-04-07T19:31:23.314Z,102007.91
2023-04-07T19:34:16.074Z,102016.03
2023-04-07T19:36:44.106Z,102015.19
2023-04-07T19:39:13.255Z,102019.69
2023-04-07T19:41:40.142Z,102021.66
2023-04-07T19:44:08.723Z,102021.00
2023-04-07T19:46:36.517Z,102027.28
2023-04-07T19:49:03.564Z,102024.63
2023-04-07T19:51:33.164Z,102023.78
2023-04-07T19:54:00.222Z,102027.28
2023-04-07T19:56:27.560Z,102026.47
2023-04-07T19:58:54.619Z,102035.28
2023-04-07T20:01:22.876Z,102033.44
2023-04-07T20:03:49.765Z,102036.09
2023-04-07T20:06:18.115Z,102037.09
2023-04-07T20:08:44.905Z,102045.91
2023-04-07T20:11:22.099Z,102045.06
2023-04-07T20:13:49.589Z,102044.22
2023-04-07T20:16:16.960Z,102052.91
2023-04-07T20:18:48.119Z,102047.72
2023-04-07T20:21:16.340Z,102046.75
2023-04-07T20:23:43.529Z,102048.41
2023-04-07T20:26:10.370Z,102041.44
2023-04-07T20:28:37.081Z,102049.53
2023-04-07T20:31:06.574Z,102053.19
2023-04-07T20:33:33.823Z,102051.53
2023-04-07T20:36:06.107Z,102056.84
2023-04-07T20:38:36.040Z,102068.47
2023-04-07T20:41:03.827Z,102065.97
2023-04-07T20:43:30.806Z,102065.13
2023-04-07T20:45:58.275Z,102068.94
2023-04-07T20:48:39.814Z,102065.56
2023-04-07T20:51:30.069Z,102073.56
2023-04-07T20:54:00.289Z,102066.88
2023-04-07T20:56:32.462Z,102071.50
2023-04-07T20:59:07.281Z,102077.81
2023-04-07T21:01:35.188Z,102074.50
2023-04-07T21:06:47.107Z,102077.28
2023-04-07T21:09:22.659Z,102074.94
2023-04-07T21:12:02.459Z,102074.56
2023-04-07T21:14:32.266Z,102081.00
2023-04-07T21:17:05.428Z,102078.66
2023-04-07T21:20:08.907Z,102077.28
2023-04-07T21:22:47.942Z,102084.00
2023-04-07T21:25:15.541Z,102080.66
2023-04-07T21:27:48.019Z,102084.75
2023-04-07T21:30:17.498Z,102085.38
2023-04-07T21:32:53.915Z,102090.28
2023-04-07T21:35:21.075Z,102090.72
2023-04-07T21:37:49.404Z,102085.03
2023-04-07T21:40:16.589Z,102086.16
2023-04-07T21:42:47.193Z,102087.44
2023-04-07T21:45:17.968Z,102088.72
2023-04-07T21:47:50.693Z,102088.03
2023-04-07T21:50:21.578Z,102086.50
2023-04-07T21:52:51.798Z,102092.28
2023-04-07T21:55:22.200Z,102098.31
2023-04-07T21:57:54.038Z,102096.41
2023-04-07T22:00:21.972Z,102094.47
2023-04-07T22:02:49.786Z,102095.91
2023-04-07T22:05:18.496Z,102093.50
2023-04-07T22:07:45.926Z,102097.44
2023-04-07T22:10:14.653Z,102101.09
2023-04-07T22:12:43.265Z,102100.38
2023-04-07T22:15:13.895Z,102104.19
2023-04-07T22:17:41.022Z,102106.13
2023-04-07T22:20:11.229Z,102109.63
2023-04-07T22:22:46.697Z,102115.19
2023-04-07T22:25:14.956Z,102113.00
2023-04-07T22:27:41.753Z,102119.56
2023-04-07T22:30:11.376Z,102117.06
2023-04-07T22:32:38.850Z,102124.19
2023-04-07T22:35:07.162Z,102124.19
2023-04-07T22:37:34.015Z,102132.41
2023-04-07T22:40:01.139Z,102128.91
2023-04-07T22:42:31.866Z,102128.22
2023-04-07T22:44:59.311Z,102129.22
2023-04-07T22:50:15.010Z,102134.66
2023-04-07T22:52:42.122Z,102130.34
2023-04-07T22:55:09.998Z,102138.28
2023-04-07T22:57:39.975Z,102135.78
2023-04-07T23:00:12.023Z,102140.69
2023-04-07T23:02:39.142Z,102145.56
2023-04-07T23:05:20.503Z,102147.53
2023-04-07T23:07:47.389Z,102143.47
2023-04-07T23:10:14.470Z,102144.59
2023-04-07T23:12:42.807Z,102143.91
2023-04-07T23:15:10.498Z,102149.31
2023-04-07T23:17:37.425Z,102158.13
2023-04-07T23:20:06.543Z,102160.22
2023-04-07T23:22:35.012Z,102158.81
2023-04-07T23:25:02.484Z,102161.91
2023-04-07T23:27:31.817Z,102166.06
2023-04-07T23:30:00.123Z,102161.03
2023-04-07T23:32:28.832Z,102151.56
2023-04-07T23:34:55.909Z,102146.66
2023-04-07T23:37:28.305Z,102153.09
2023-04-07T23:39:54.983Z,102154.22
2023-04-07T23:42:22.648Z,102152.81
2023-04-07T23:44:49.642Z,102152.81
2023-04-07T23:47:17.914Z,102170.09
2023-04-07T23:49:45.008Z,102164.94
2023-04-07T23:52:12.513Z,102152.25
2023-04-07T23:54:45.149Z,102162.72
2023-04-07T23:57:13.205Z,102167.03
2023-04-07T23:59:47.796Z,102162.28
